Terminal Aerodrome Forecast
Issued by NWS

Home | Current Version | Previous Version | Text Only | Print | Product List | Glossary On
Versions: 1 2 3 4 5 6 7 8 9 10 11 12 13
000
FTUS43 KOAX 202328
TAFBFF
TAF
KBFF 202328Z 2100/2124 11011KT P6SM SCT120
     FM210200 09006KT P6SM SKC
     FM211000 12010KT P6SM BKN025
     FM211400 32008KT P6SM FEW025 SCT120=

USA.gov is the U.S. government's official web portal to all federal, state and local government web resources and services.